Iron Mountain, Wyoming
Current Conditions -  °F | °C
As of 8:53 AM on Tuesday 21 Oct 2014 (Local Time) from KCYS Reporting Station
Scattered Clouds Scattered Clouds  
Wind Chill: 60°   Ceiling: Unl
Heat Index: 60°   Visibility: 10mi
Dew Point: 37°   Wind: 8mph
Humidity: 42%   Direction: 280°W
Pressure: 30.05"   Gusts: NA
Location:  41.4091°N, 104.861°W
Report Text: KCYS 211453Z 28007KT 10SM SCT110 16/03 A3005 RMK AO2 SLP116 T01560028 50002
Loading
Personal Weather Stations






























Interactive Weather Map
Tropical Storm Tracking
New forecast layout! Learn more

10-Day Weather Forecast

Advertisements
Track Severe Weather on mobile